sensor_id;sensor_type;location;lat;lon;timestamp;pressure;altitude;pressure_sealevel;temperature;humidity
80186;BME280;69904;52.122;5.422;2023-10-09T00:01:04;102039.97;;;14.07;91.20
80186;BME280;69904;52.122;5.422;2023-10-09T00:03:40;102046.22;;;14.07;90.93
80186;BME280;69904;52.122;5.422;2023-10-09T00:06:08;102052.50;;;14.08;91.08
80186;BME280;69904;52.122;5.422;2023-10-09T00:08:36;102043.97;;;14.11;90.81
80186;BME280;69904;52.122;5.422;2023-10-09T00:11:05;102051.94;;;14.12;91.04
80186;BME280;69904;52.122;5.422;2023-10-09T00:13:46;102038.53;;;14.11;90.53
80186;BME280;69904;52.122;5.422;2023-10-09T00:16:21;102036.03;;;14.09;91.00
80186;BME280;69904;52.122;5.422;2023-10-09T00:19:11;102031.63;;;14.08;91.04
80186;BME280;69904;52.122;5.422;2023-10-09T00:21:41;102030.59;;;14.09;91.04
80186;BME280;69904;52.122;5.422;2023-10-09T00:24:08;102031.22;;;14.11;90.62
80186;BME280;69904;52.122;5.422;2023-10-09T00:26:41;102033.78;;;14.13;90.88
80186;BME280;69904;52.122;5.422;2023-10-09T00:29:12;102027.50;;;14.12;90.46
80186;BME280;69904;52.122;5.422;2023-10-09T00:31:52;102037.31;;;14.13;90.48
80186;BME280;69904;52.122;5.422;2023-10-09T00:34:29;102036.31;;;14.14;90.46
80186;BME280;69904;52.122;5.422;2023-10-09T00:36:56;102045.47;;;14.13;90.78
80186;BME280;69904;52.122;5.422;2023-10-09T00:39:30;102047.34;;;14.13;90.69
80186;BME280;69904;52.122;5.422;2023-10-09T00:42:20;102042.09;;;14.11;90.45
80186;BME280;69904;52.122;5.422;2023-10-09T00:45:05;102027.88;;;14.09;90.80
80186;BME280;69904;52.122;5.422;2023-10-09T00:47:36;102041.47;;;14.09;90.56
80186;BME280;69904;52.122;5.422;2023-10-09T00:50:08;102035.81;;;14.11;90.53
80186;BME280;69904;52.122;5.422;2023-10-09T00:52:50;102032.25;;;14.10;90.51
80186;BME280;69904;52.122;5.422;2023-10-09T00:55:35;102039.38;;;14.11;90.44
80186;BME280;69904;52.122;5.422;2023-10-09T00:58:14;102028.53;;;14.11;90.58
80186;BME280;69904;52.122;5.422;2023-10-09T01:00:42;102023.09;;;14.11;90.45
80186;BME280;69904;52.122;5.422;2023-10-09T01:03:14;102022.91;;;14.13;90.57
80186;BME280;69904;52.122;5.422;2023-10-09T01:05:45;102022.72;;;14.14;90.34
80186;BME280;69904;52.122;5.422;2023-10-09T01:08:19;102016.44;;;14.14;90.47
80186;BME280;69904;52.122;5.422;2023-10-09T01:10:58;102012.22;;;14.11;90.54
80186;BME280;69904;52.122;5.422;2023-10-09T01:13:37;102014.94;;;14.11;90.74
80186;BME280;69904;52.122;5.422;2023-10-09T01:16:12;102009.34;;;14.13;90.46
80186;BME280;69904;52.122;5.422;2023-10-09T01:18:42;102011.03;;;14.14;90.64
80186;BME280;69904;52.122;5.422;2023-10-09T01:21:10;102011.88;;;14.14;90.62
80186;BME280;69904;52.122;5.422;2023-10-09T01:23:41;101999.75;;;14.17;90.71
80186;BME280;69904;52.122;5.422;2023-10-09T01:26:25;101997.03;;;14.17;90.41
80186;BME280;69904;52.122;5.422;2023-10-09T01:28:52;101999.56;;;14.18;90.61
80186;BME280;69904;52.122;5.422;2023-10-09T01:31:24;101997.88;;;14.17;90.25
80186;BME280;69904;52.122;5.422;2023-10-09T01:33:53;102004.16;;;14.18;90.17
80186;BME280;69904;52.122;5.422;2023-10-09T01:36:20;102003.13;;;14.19;90.23
80186;BME280;69904;52.122;5.422;2023-10-09T01:39:01;102001.25;;;14.19;90.17
80186;BME280;69904;52.122;5.422;2023-10-09T01:41:48;101990.41;;;14.19;90.41
80186;BME280;69904;52.122;5.422;2023-10-09T01:44:16;101984.78;;;14.21;90.50
80186;BME280;69904;52.122;5.422;2023-10-09T01:46:42;101983.72;;;14.22;90.68
80186;BME280;69904;52.122;5.422;2023-10-09T01:49:13;101986.25;;;14.23;90.27
80186;BME280;69904;52.122;5.422;2023-10-09T01:51:48;101983.53;;;14.23;90.59
80186;BME280;69904;52.122;5.422;2023-10-09T01:54:16;101976.25;;;14.24;90.79
80186;BME280;69904;52.122;5.422;2023-10-09T01:57:00;101981.50;;;14.25;90.54
80186;BME280;69904;52.122;5.422;2023-10-09T01:59:32;101976.06;;;14.25;90.43
80186;BME280;69904;52.122;5.422;2023-10-09T02:01:59;101969.78;;;14.25;90.53
80186;BME280;69904;52.122;5.422;2023-10-09T02:04:28;101966.84;;;14.26;90.94
80186;BME280;69904;52.122;5.422;2023-10-09T02:06:55;101964.34;;;14.25;90.49
80186;BME280;69904;52.122;5.422;2023-10-09T02:09:22;101968.75;;;14.26;90.90
80186;BME280;69904;52.122;5.422;2023-10-09T02:11:56;101969.56;;;14.26;90.79
80186;BME280;69904;52.122;5.422;2023-10-09T02:14:23;101959.75;;;14.25;90.83
80186;BME280;69904;52.122;5.422;2023-10-09T02:16:50;101957.06;;;14.25;90.66
80186;BME280;69904;52.122;5.422;2023-10-09T02:19:29;101951.41;;;14.27;90.51
80186;BME280;69904;52.122;5.422;2023-10-09T02:22:01;101948.06;;;14.25;90.87
80186;BME280;69904;52.122;5.422;2023-10-09T02:24:42;101946.19;;;14.25;90.57
80186;BME280;69904;52.122;5.422;2023-10-09T02:27:19;101945.13;;;14.26;90.86
80186;BME280;69904;52.122;5.422;2023-10-09T02:30:05;101940.94;;;14.24;90.87
80186;BME280;69904;52.122;5.422;2023-10-09T02:32:42;101938.41;;;14.22;90.79
80186;BME280;69904;52.122;5.422;2023-10-09T02:35:12;101934.66;;;14.23;90.65
80186;BME280;69904;52.122;5.422;2023-10-09T02:38:02;101940.75;;;14.25;90.78
80186;BME280;69904;52.122;5.422;2023-10-09T02:40:33;101948.06;;;14.25;90.90
80186;BME280;69904;52.122;5.422;2023-10-09T02:43:08;101939.06;;;14.24;90.70
80186;BME280;69904;52.122;5.422;2023-10-09T02:45:44;101929.06;;;14.25;90.54
80186;BME280;69904;52.122;5.422;2023-10-09T02:48:17;101932.59;;;14.25;90.45
80186;BME280;69904;52.122;5.422;2023-10-09T02:50:46;101926.34;;;14.25;90.55
80186;BME280;69904;52.122;5.422;2023-10-09T02:53:13;101924.25;;;14.27;90.94
80186;BME280;69904;52.122;5.422;2023-10-09T02:55:46;101925.09;;;14.27;90.83
80186;BME280;69904;52.122;5.422;2023-10-09T02:58:54;101923.22;;;14.28;90.84
80186;BME280;69904;52.122;5.422;2023-10-09T03:01:22;101921.34;;;14.28;91.04
80186;BME280;69904;52.122;5.422;2023-10-09T03:03:48;101914.22;;;14.27;90.88
80186;BME280;69904;52.122;5.422;2023-10-09T03:06:15;101910.47;;;14.28;90.75
80186;BME280;69904;52.122;5.422;2023-10-09T03:08:57;101901.13;;;14.31;90.82
80186;BME280;69904;52.122;5.422;2023-10-09T03:11:24;101911.75;;;14.32;90.82
80186;BME280;69904;52.122;5.422;2023-10-09T03:13:53;101907.81;;;14.35;91.15
80186;BME280;69904;52.122;5.422;2023-10-09T03:16:21;101903.06;;;14.37;91.04
80186;BME280;69904;52.122;5.422;2023-10-09T03:18:52;101897.44;;;14.39;90.95
80186;BME280;69904;52.122;5.422;2023-10-09T03:21:19;101901.00;;;14.39;91.31
80186;BME280;69904;52.122;5.422;2023-10-09T03:23:47;101896.41;;;14.40;91.22
80186;BME280;69904;52.122;5.422;2023-10-09T03:26:18;101903.34;;;14.42;91.08
80186;BME280;69904;52.122;5.422;2023-10-09T03:28:48;101900.41;;;14.44;91.20
80186;BME280;69904;52.122;5.422;2023-10-09T03:31:15;101900.22;;;14.45;91.09
80186;BME280;69904;52.122;5.422;2023-10-09T03:33:42;101910.88;;;14.47;90.96
80186;BME280;69904;52.122;5.422;2023-10-09T03:36:11;101904.38;;;14.48;91.12
80186;BME280;69904;52.122;5.422;2023-10-09T03:38:38;101898.97;;;14.48;90.92
80186;BME280;69904;52.122;5.422;2023-10-09T03:41:06;101880.78;;;14.48;90.82
80186;BME280;69904;52.122;5.422;2023-10-09T03:43:35;101883.31;;;14.50;91.25
80186;BME280;69904;52.122;5.422;2023-10-09T03:46:10;101893.59;;;14.54;91.27
80186;BME280;69904;52.122;5.422;2023-10-09T03:48:49;101917.66;;;14.57;91.12
80186;BME280;69904;52.122;5.422;2023-10-09T03:51:16;101940.41;;;14.56;91.19
80186;BME280;69904;52.122;5.422;2023-10-09T03:53:50;101947.31;;;14.59;91.14
80186;BME280;69904;52.122;5.422;2023-10-09T03:56:26;101940.84;;;14.60;91.24
80186;BME280;69904;52.122;5.422;2023-10-09T03:58:53;101941.50;;;14.62;91.30
80186;BME280;69904;52.122;5.422;2023-10-09T04:01:22;101940.91;;;14.66;91.34
80186;BME280;69904;52.122;5.422;2023-10-09T04:03:53;101940.72;;;14.68;91.53
80186;BME280;69904;52.122;5.422;2023-10-09T04:06:28;101926.72;;;14.71;91.19
80186;BME280;69904;52.122;5.422;2023-10-09T04:09:00;101939.28;;;14.72;91.37
80186;BME280;69904;52.122;5.422;2023-10-09T04:11:40;101939.72;;;14.75;91.78
80186;BME280;69904;52.122;5.422;2023-10-09T04:14:09;101936.81;;;14.77;91.68
80186;BME280;69904;52.122;5.422;2023-10-09T04:16:49;101934.75;;;14.79;91.81
80186;BME280;69904;52.122;5.422;2023-10-09T04:19:30;101933.91;;;14.79;91.58
80186;BME280;69904;52.122;5.422;2023-10-09T04:22:06;101937.47;;;14.79;91.84
80186;BME280;69904;52.122;5.422;2023-10-09T04:24:37;101925.75;;;14.79;91.71
80186;BME280;69904;52.122;5.422;2023-10-09T04:27:11;101937.47;;;14.79;91.94
80186;BME280;69904;52.122;5.422;2023-10-09T04:29:42;101919.28;;;14.80;91.86
80186;BME280;69904;52.122;5.422;2023-10-09T04:32:13;101918.44;;;14.79;91.53
80186;BME280;69904;52.122;5.422;2023-10-09T04:34:44;101920.94;;;14.81;91.83
80186;BME280;69904;52.122;5.422;2023-10-09T04:37:31;101903.41;;;14.83;91.86
80186;BME280;69904;52.122;5.422;2023-10-09T04:40:08;101895.88;;;14.85;91.97
80186;BME280;69904;52.122;5.422;2023-10-09T04:43:01;101908.25;;;14.88;91.80
80186;BME280;69904;52.122;5.422;2023-10-09T04:45:36;101917.22;;;14.88;91.87
80186;BME280;69904;52.122;5.422;2023-10-09T04:48:22;101919.75;;;14.90;92.05
80186;BME280;69904;52.122;5.422;2023-10-09T04:51:05;101912.44;;;14.90;91.81
80186;BME280;69904;52.122;5.422;2023-10-09T04:54:04;101907.63;;;14.92;91.98
80186;BME280;69904;52.122;5.422;2023-10-09T04:56:40;101907.44;;;14.94;91.91
80186;BME280;69904;52.122;5.422;2023-10-09T04:59:19;101906.00;;;14.98;92.08
80186;BME280;69904;52.122;5.422;2023-10-09T05:01:51;101900.97;;;15.01;92.15
80186;BME280;69904;52.122;5.422;2023-10-09T05:04:25;101905.19;;;15.04;91.87
80186;BME280;69904;52.122;5.422;2023-10-09T05:07:07;101919.81;;;15.03;91.88
80186;BME280;69904;52.122;5.422;2023-10-09T05:10:16;101906.88;;;15.05;92.16
80186;BME280;69904;52.122;5.422;2023-10-09T05:12:57;101915.66;;;15.07;92.07
80186;BME280;69904;52.122;5.422;2023-10-09T05:15:26;101913.59;;;15.09;92.30
80186;BME280;69904;52.122;5.422;2023-10-09T05:17:56;101914.00;;;15.12;92.38
80186;BME280;69904;52.122;5.422;2023-10-09T05:20:38;101927.22;;;15.15;92.04
80186;BME280;69904;52.122;5.422;2023-10-09T05:23:26;101931.81;;;15.15;92.07
80186;BME280;69904;52.122;5.422;2023-10-09T05:25:53;101944.78;;;15.13;92.20
80186;BME280;69904;52.122;5.422;2023-10-09T05:28:20;101952.72;;;15.14;91.89
80186;BME280;69904;52.122;5.422;2023-10-09T05:31:02;101950.66;;;15.16;92.23
80186;BME280;69904;52.122;5.422;2023-10-09T05:33:36;101954.22;;;15.17;92.29
80186;BME280;69904;52.122;5.422;2023-10-09T05:36:10;101951.94;;;15.21;92.10
80186;BME280;69904;52.122;5.422;2023-10-09T05:38:52;101955.69;;;15.20;92.22
80186;BME280;69904;52.122;5.422;2023-10-09T05:41:37;101967.00;;;15.23;92.36
80186;BME280;69904;52.122;5.422;2023-10-09T05:44:27;101961.38;;;15.25;92.05
80186;BME280;69904;52.122;5.422;2023-10-09T05:47:12;101965.97;;;15.24;92.13
80186;BME280;69904;52.122;5.422;2023-10-09T05:49:56;101968.31;;;15.27;92.51
80186;BME280;69904;52.122;5.422;2023-10-09T05:52:43;101972.47;;;15.30;92.30
80186;BME280;69904;52.122;5.422;2023-10-09T05:55:23;101978.56;;;15.32;92.18
80186;BME280;69904;52.122;5.422;2023-10-09T05:58:09;101979.19;;;15.34;92.18
80186;BME280;69904;52.122;5.422;2023-10-09T06:00:36;101971.69;;;15.36;92.30
80186;BME280;69904;52.122;5.422;2023-10-09T06:03:22;101967.31;;;15.41;92.35
80186;BME280;69904;52.122;5.422;2023-10-09T06:06:20;101942.84;;;15.41;91.91
80186;BME280;69904;52.122;5.422;2023-10-09T06:09:04;101932.81;;;15.48;92.04
80186;BME280;69904;52.122;5.422;2023-10-09T06:11:57;101919.47;;;15.53;92.07
80186;BME280;69904;52.122;5.422;2023-10-09T06:14:44;101914.47;;;15.57;91.58
80186;BME280;69904;52.122;5.422;2023-10-09T06:17:16;101925.34;;;15.57;91.54
80186;BME280;69904;52.122;5.422;2023-10-09T06:19:56;101930.38;;;15.53;91.77
80186;BME280;69904;52.122;5.422;2023-10-09T06:22:25;101941.25;;;15.53;91.54
80186;BME280;69904;52.122;5.422;2023-10-09T06:25:11;101932.06;;;15.54;91.65
80186;BME280;69904;52.122;5.422;2023-10-09T06:27:39;101924.69;;;15.55;91.42
80186;BME280;69904;52.122;5.422;2023-10-09T06:30:09;101923.66;;;15.56;91.64
80186;BME280;69904;52.122;5.422;2023-10-09T06:32:53;101915.31;;;15.57;91.55
80186;BME280;69904;52.122;5.422;2023-10-09T06:35:36;101924.13;;;15.60;91.78
80186;BME280;69904;52.122;5.422;2023-10-09T06:38:20;101930.38;;;15.60;91.49
80186;BME280;69904;52.122;5.422;2023-10-09T06:41:06;101944.19;;;15.58;91.82
80186;BME280;69904;52.122;5.422;2023-10-09T06:43:36;101943.97;;;15.60;91.63
80186;BME280;69904;52.122;5.422;2023-10-09T06:46:03;101975.81;;;15.60;91.65
80186;BME280;69904;52.122;5.422;2023-10-09T06:48:48;101973.28;;;15.58;91.84
80186;BME280;69904;52.122;5.422;2023-10-09T06:51:32;101971.00;;;15.62;91.58
80186;BME280;69904;52.122;5.422;2023-10-09T06:54:07;101975.41;;;15.63;91.77
80186;BME280;69904;52.122;5.422;2023-10-09T06:56:36;101977.09;;;15.64;92.10
80186;BME280;69904;52.122;5.422;2023-10-09T06:59:04;101977.94;;;15.64;92.04
80186;BME280;69904;52.122;5.422;2023-10-09T07:01:42;101973.09;;;15.66;91.95
80186;BME280;69904;52.122;5.422;2023-10-09T07:04:17;101971.44;;;15.65;91.87
80186;BME280;69904;52.122;5.422;2023-10-09T07:07:14;101971.03;;;15.68;92.10
80186;BME280;69904;52.122;5.422;2023-10-09T07:09:41;101968.09;;;15.70;92.14
80186;BME280;69904;52.122;5.422;2023-10-09T07:12:28;101970.59;;;15.71;91.95
80186;BME280;69904;52.122;5.422;2023-10-09T07:14:54;101967.69;;;15.73;92.06
80186;BME280;69904;52.122;5.422;2023-10-09T07:17:55;101977.53;;;15.74;92.05
80186;BME280;69904;52.122;5.422;2023-10-09T07:20:24;101977.34;;;15.75;92.08
80186;BME280;69904;52.122;5.422;2023-10-09T07:23:04;101960.78;;;15.77;91.84
80186;BME280;69904;52.122;5.422;2023-10-09T07:25:49;101969.59;;;15.79;91.52
80186;BME280;69904;52.122;5.422;2023-10-09T07:28:28;101959.34;;;15.81;91.64
80186;BME280;69904;52.122;5.422;2023-10-09T07:31:20;101935.47;;;15.83;91.79
80186;BME280;69904;52.122;5.422;2023-10-09T07:33:54;101909.09;;;15.83;91.71
80186;BME280;69904;52.122;5.422;2023-10-09T07:36:36;101908.03;;;15.84;91.69
80186;BME280;69904;52.122;5.422;2023-10-09T07:39:07;101896.97;;;15.86;91.82
80186;BME280;69904;52.122;5.422;2023-10-09T07:41:40;101887.53;;;15.88;92.07
80186;BME280;69904;52.122;5.422;2023-10-09T07:44:25;101905.53;;;15.89;91.70
80186;BME280;69904;52.122;5.422;2023-10-09T07:47:04;101926.06;;;15.92;91.78
80186;BME280;69904;52.122;5.422;2023-10-09T07:49:51;101943.03;;;15.94;91.72
80186;BME280;69904;52.122;5.422;2023-10-09T07:52:20;101948.09;;;15.97;91.72
80186;BME280;69904;52.122;5.422;2023-10-09T07:54:49;101951.22;;;16.00;91.70
80186;BME280;69904;52.122;5.422;2023-10-09T07:57:29;101964.41;;;16.04;91.92
80186;BME280;69904;52.122;5.422;2023-10-09T08:00:08;101969.47;;;16.07;92.06
80186;BME280;69904;52.122;5.422;2023-10-09T08:03:03;101968.19;;;16.09;91.47
80186;BME280;69904;52.122;5.422;2023-10-09T08:05:36;101971.16;;;16.14;91.78
80186;BME280;69904;52.122;5.422;2023-10-09T08:08:11;101957.13;;;16.17;91.51
80186;BME280;69904;52.122;5.422;2023-10-09T08:11:08;101964.03;;;16.20;91.63
80186;BME280;69904;52.122;5.422;2023-10-09T08:14:00;101985.19;;;16.24;91.33
80186;BME280;69904;52.122;5.422;2023-10-09T08:16:29;101985.00;;;16.26;91.42
80186;BME280;69904;52.122;5.422;2023-10-09T08:19:04;101983.53;;;16.30;91.05
80186;BME280;69904;52.122;5.422;2023-10-09T08:21:53;101976.84;;;16.32;91.15
80186;BME280;69904;52.122;5.422;2023-10-09T08:24:40;101979.13;;;16.35;90.99
80186;BME280;69904;52.122;5.422;2023-10-09T08:27:09;101973.28;;;16.38;91.00
80186;BME280;69904;52.122;5.422;2023-10-09T08:29:55;101978.13;;;16.43;90.55
80186;BME280;69904;52.122;5.422;2023-10-09T08:32:54;101975.81;;;16.47;90.74
80186;BME280;69904;52.122;5.422;2023-10-09T08:35:43;101989.03;;;16.50;90.72
80186;BME280;69904;52.122;5.422;2023-10-09T08:38:17;101999.28;;;16.54;90.59
80186;BME280;69904;52.122;5.422;2023-10-09T08:41:06;102024.44;;;16.56;90.45
80186;BME280;69904;52.122;5.422;2023-10-09T08:43:50;102030.16;;;16.61;90.46
80186;BME280;69904;52.122;5.422;2023-10-09T08:46:24;102019.69;;;16.65;90.42
80186;BME280;69904;52.122;5.422;2023-10-09T08:48:59;102022.59;;;16.70;90.39
80186;BME280;69904;52.122;5.422;2023-10-09T08:51:29;102023.47;;;16.77;90.36
80186;BME280;69904;52.122;5.422;2023-10-09T08:53:59;102023.88;;;16.80;89.91
80186;BME280;69904;52.122;5.422;2023-10-09T08:56:28;102034.78;;;16.87;89.81
80186;BME280;69904;52.122;5.422;2023-10-09T08:58:58;102044.41;;;16.90;89.50
80186;BME280;69904;52.122;5.422;2023-10-09T09:01:31;102039.16;;;16.95;89.46
80186;BME280;69904;52.122;5.422;2023-10-09T09:03:59;102034.16;;;16.98;89.28
80186;BME280;69904;52.122;5.422;2023-10-09T09:06:36;102036.66;;;17.00;88.94
80186;BME280;69904;52.122;5.422;2023-10-09T09:09:11;102034.97;;;17.05;88.38
80186;BME280;69904;52.122;5.422;2023-10-09T09:11:45;102034.31;;;17.10;88.26
80186;BME280;69904;52.122;5.422;2023-10-09T09:14:38;102029.91;;;17.15;88.16
80186;BME280;69904;52.122;5.422;2023-10-09T09:17:22;102022.16;;;17.19;87.80
80186;BME280;69904;52.122;5.422;2023-10-09T09:19:58;102042.72;;;17.21;87.83
80186;BME280;69904;52.122;5.422;2023-10-09T09:22:25;102046.47;;;17.27;87.48
80186;BME280;69904;52.122;5.422;2023-10-09T09:25:01;102054.03;;;17.32;87.03
80186;BME280;69904;52.122;5.422;2023-10-09T09:27:45;102058.84;;;17.36;87.03
80186;BME280;69904;52.122;5.422;2023-10-09T09:30:27;102058.84;;;17.43;86.90
80186;BME280;69904;52.122;5.422;2023-10-09T09:33:23;102050.00;;;17.47;86.71
80186;BME280;69904;52.122;5.422;2023-10-09T09:36:00;102044.75;;;17.52;86.77
80186;BME280;69904;52.122;5.422;2023-10-09T09:38:35;102051.25;;;17.58;86.53
80186;BME280;69904;52.122;5.422;2023-10-09T09:41:18;102045.78;;;17.58;86.12
80186;BME280;69904;52.122;5.422;2023-10-09T09:44:00;102046.00;;;17.63;86.12
80186;BME280;69904;52.122;5.422;2023-10-09T09:46:35;102048.97;;;17.68;86.29
80186;BME280;69904;52.122;5.422;2023-10-09T09:49:06;102033.81;;;17.72;85.90
80186;BME280;69904;52.122;5.422;2023-10-09T09:51:43;102040.50;;;17.76;85.51
80186;BME280;69904;52.122;5.422;2023-10-09T09:54:14;102039.25;;;17.79;85.21
80186;BME280;69904;52.122;5.422;2023-10-09T09:56:46;102051.19;;;17.84;85.18
80186;BME280;69904;52.122;5.422;2023-10-09T09:59:26;102048.03;;;17.87;85.23
80186;BME280;69904;52.122;5.422;2023-10-09T10:02:01;102051.41;;;17.89;85.25
80186;BME280;69904;52.122;5.422;2023-10-09T10:04:38;102057.69;;;17.90;85.34
80186;BME280;69904;52.122;5.422;2023-10-09T10:07:09;102054.13;;;17.89;84.94
80186;BME280;69904;52.122;5.422;2023-10-09T10:09:42;102048.22;;;17.92;85.18
80186;BME280;69904;52.122;5.422;2023-10-09T10:12:49;102040.44;;;17.96;84.89
80186;BME280;69904;52.122;5.422;2023-10-09T10:18:33;102041.44;;;18.01;84.87
80186;BME280;69904;52.122;5.422;2023-10-09T10:32:56;102066.00;;;18.15;84.51
80186;BME280;69904;52.122;5.422;2023-10-09T10:35:30;102072.06;;;18.17;84.27
80186;BME280;69904;52.122;5.422;2023-10-09T10:38:32;102064.50;;;18.19;84.10
80186;BME280;69904;52.122;5.422;2023-10-09T10:41:20;102070.97;;;18.24;84.14
80186;BME280;69904;52.122;5.422;2023-10-09T10:43:49;102071.16;;;18.29;84.25
80186;BME280;69904;52.122;5.422;2023-10-09T10:46:28;102066.94;;;18.33;83.48
80186;BME280;69904;52.122;5.422;2023-10-09T10:49:08;102070.69;;;18.39;83.71
80186;BME280;69904;52.122;5.422;2023-10-09T10:51:44;102060.38;;;18.41;83.60
80186;BME280;69904;52.122;5.422;2023-10-09T10:54:27;102056.59;;;18.42;83.37
80186;BME280;69904;52.122;5.422;2023-10-09T10:57:13;102058.28;;;18.43;82.92
80186;BME280;69904;52.122;5.422;2023-10-09T10:59:48;102064.97;;;18.47;82.74
80186;BME280;69904;52.122;5.422;2023-10-09T11:02:47;102061.34;;;18.53;82.49
80186;BME280;69904;52.122;5.422;2023-10-09T11:05:25;102066.41;;;18.56;82.07
80186;BME280;69904;52.122;5.422;2023-10-09T11:07:57;102070.81;;;18.57;81.11
80186;BME280;69904;52.122;5.422;2023-10-09T11:10:29;102062.16;;;18.60;81.09
80186;BME280;69904;52.122;5.422;2023-10-09T11:13:03;102050.81;;;18.63;80.83
80186;BME280;69904;52.122;5.422;2023-10-09T11:15:40;102051.41;;;18.65;79.92
80186;BME280;69904;52.122;5.422;2023-10-09T11:18:41;102052.66;;;18.69;79.98
80186;BME280;69904;52.122;5.422;2023-10-09T11:21:29;102063.97;;;18.73;80.01
80186;BME280;69904;52.122;5.422;2023-10-09T11:24:08;102060.56;;;18.77;80.26
80186;BME280;69904;52.122;5.422;2023-10-09T11:27:05;102057.63;;;18.79;79.72
80186;BME280;69904;52.122;5.422;2023-10-09T11:29:49;102070.63;;;18.83;79.93
80186;BME280;69904;52.122;5.422;2023-10-09T11:32:22;102068.53;;;18.85;79.42
80186;BME280;69904;52.122;5.422;2023-10-09T11:35:17;102069.34;;;18.86;78.83
80186;BME280;69904;52.122;5.422;2023-10-09T11:38:14;102059.03;;;18.88;78.55
80186;BME280;69904;52.122;5.422;2023-10-09T11:40:50;102063.22;;;18.90;78.87
80186;BME280;69904;52.122;5.422;2023-10-09T11:43:53;102056.66;;;18.91;78.47
80186;BME280;69904;52.122;5.422;2023-10-09T11:46:24;102061.91;;;18.93;79.00
80186;BME280;69904;52.122;5.422;2023-10-09T11:49:14;102056.44;;;18.93;78.86
80186;BME280;69904;52.122;5.422;2023-10-09T11:52:13;102054.09;;;18.97;78.92
80186;BME280;69904;52.122;5.422;2023-10-09T11:54:43;102062.94;;;18.99;78.57
80186;BME280;69904;52.122;5.422;2023-10-09T11:57:12;102058.28;;;18.99;78.80
80186;BME280;69904;52.122;5.422;2023-10-09T11:59:48;102061.66;;;19.01;79.10
80186;BME280;69904;52.122;5.422;2023-10-09T12:02:21;102062.72;;;19.00;79.11
80186;BME280;69904;52.122;5.422;2023-10-09T12:04:54;102057.44;;;18.99;79.35
80186;BME280;69904;52.122;5.422;2023-10-09T12:07:56;102053.03;;;18.98;79.46
80186;BME280;69904;52.122;5.422;2023-10-09T12:10:26;102051.13;;;18.98;79.08
80186;BME280;69904;52.122;5.422;2023-10-09T12:12:58;102047.97;;;19.01;79.68
80186;BME280;69904;52.122;5.422;2023-10-09T12:15:25;102044.56;;;19.06;79.23
80186;BME280;69904;52.122;5.422;2023-10-09T12:17:51;102050.63;;;19.08;79.11
80186;BME280;69904;52.122;5.422;2023-10-09T12:20:20;102041.81;;;19.06;78.99
80186;BME280;69904;52.122;5.422;2023-10-09T12:23:03;102039.75;;;19.01;79.37
80186;BME280;69904;52.122;5.422;2023-10-09T12:25:33;102038.09;;;19.00;79.15
80186;BME280;69904;52.122;5.422;2023-10-09T12:28:21;102035.78;;;18.97;79.62
80186;BME280;69904;52.122;5.422;2023-10-09T12:30:50;102037.91;;;18.95;79.40
80186;BME280;69904;52.122;5.422;2023-10-09T12:33:20;102030.97;;;18.92;79.71
80186;BME280;69904;52.122;5.422;2023-10-09T12:36:04;102038.59;;;18.90;79.74
80186;BME280;69904;52.122;5.422;2023-10-09T12:38:31;102038.81;;;18.89;79.75
80186;BME280;69904;52.122;5.422;2023-10-09T12:43:37;102042.59;;;18.88;79.95
80186;BME280;69904;52.122;5.422;2023-10-09T12:46:10;102047.03;;;18.89;80.03
80186;BME280;69904;52.122;5.422;2023-10-09T12:48:49;102042.38;;;18.89;79.96
80186;BME280;69904;52.122;5.422;2023-10-09T12:51:19;102053.94;;;18.91;80.40
80186;BME280;69904;52.122;5.422;2023-10-09T12:53:47;102049.91;;;18.94;79.73
80186;BME280;69904;52.122;5.422;2023-10-09T12:56:28;102043.59;;;18.93;80.07
80186;BME280;69904;52.122;5.422;2023-10-09T12:59:07;102050.38;;;18.91;79.99
80186;BME280;69904;52.122;5.422;2023-10-09T13:01:38;102053.50;;;18.95;80.13
80186;BME280;69904;52.122;5.422;2023-10-09T13:04:12;102057.50;;;18.92;80.12
80186;BME280;69904;52.122;5.422;2023-10-09T13:06:45;102053.31;;;18.89;80.12
80186;BME280;69904;52.122;5.422;2023-10-09T13:09:15;102059.22;;;18.86;80.02
80186;BME280;69904;52.122;5.422;2023-10-09T13:11:43;102056.75;;;18.85;80.12
80186;BME280;69904;52.122;5.422;2023-10-09T13:14:13;102062.63;;;18.82;80.34
80186;BME280;69904;52.122;5.422;2023-10-09T13:17:01;102060.53;;;18.84;80.43
80186;BME280;69904;52.122;5.422;2023-10-09T13:19:38;102057.59;;;18.85;80.28
80186;BME280;69904;52.122;5.422;2023-10-09T13:22:06;102056.28;;;18.88;80.45
80186;BME280;69904;52.122;5.422;2023-10-09T13:24:47;102046.19;;;18.88;80.37
80186;BME280;69904;52.122;5.422;2023-10-09T13:27:18;102056.91;;;18.90;80.33
80186;BME280;69904;52.122;5.422;2023-10-09T13:29:48;102060.69;;;18.89;80.07
80186;BME280;69904;52.122;5.422;2023-10-09T13:32:19;102060.69;;;18.89;79.91
80186;BME280;69904;52.122;5.422;2023-10-09T13:34:46;102059.66;;;18.90;80.18
80186;BME280;69904;52.122;5.422;2023-10-09T13:37:17;102063.22;;;18.90;80.00
80186;BME280;69904;52.122;5.422;2023-10-09T13:39:48;102056.06;;;18.89;80.04
80186;BME280;69904;52.122;5.422;2023-10-09T13:42:27;102055.00;;;18.90;80.27
80186;BME280;69904;52.122;5.422;2023-10-09T13:44:54;102060.69;;;18.89;79.85
80186;BME280;69904;52.122;5.422;2023-10-09T13:47:28;102049.97;;;18.87;79.79
80186;BME280;69904;52.122;5.422;2023-10-09T13:50:13;102059.03;;;18.88;79.58
80186;BME280;69904;52.122;5.422;2023-10-09T13:52:44;102060.69;;;18.89;79.40
80186;BME280;69904;52.122;5.422;2023-10-09T13:55:15;102057.75;;;18.90;79.21
80186;BME280;69904;52.122;5.422;2023-10-09T13:57:45;102059.41;;;18.91;79.43